sensor_id;sensor_type;location;lat;lon;timestamp;temperature;humidity
48043;DHT22;33988;47.992;8.820;2023-04-25T00:01:31;15.50;44.60
48043;DHT22;33988;47.992;8.820;2023-04-25T00:04:00;15.50;44.80
48043;DHT22;33988;47.992;8.820;2023-04-25T00:06:28;15.50;44.90
48043;DHT22;33988;47.992;8.820;2023-04-25T00:08:56;15.40;45.00
48043;DHT22;33988;47.992;8.820;2023-04-25T00:11:26;15.40;45.10
48043;DHT22;33988;47.992;8.820;2023-04-25T00:13:57;15.40;45.20
48043;DHT22;33988;47.992;8.820;2023-04-25T00:16:26;15.40;45.20
48043;DHT22;33988;47.992;8.820;2023-04-25T00:18:57;15.40;45.30
48043;DHT22;33988;47.992;8.820;2023-04-25T00:21:25;15.40;45.40
48043;DHT22;33988;47.992;8.820;2023-04-25T00:23:55;15.40;45.40
48043;DHT22;33988;47.992;8.820;2023-04-25T00:26:22;15.40;45.50
48043;DHT22;33988;47.992;8.820;2023-04-25T00:28:50;15.40;45.60
48043;DHT22;33988;47.992;8.820;2023-04-25T00:31:17;15.30;45.70
48043;DHT22;33988;47.992;8.820;2023-04-25T00:33:46;15.30;45.90
48043;DHT22;33988;47.992;8.820;2023-04-25T00:36:16;15.30;45.90
48043;DHT22;33988;47.992;8.820;2023-04-25T00:38:43;15.30;45.90
48043;DHT22;33988;47.992;8.820;2023-04-25T00:41:12;15.30;46.00
48043;DHT22;33988;47.992;8.820;2023-04-25T00:43:40;15.30;46.00
48043;DHT22;33988;47.992;8.820;2023-04-25T00:46:07;15.30;46.10
48043;DHT22;33988;47.992;8.820;2023-04-25T00:48:34;15.20;46.10
48043;DHT22;33988;47.992;8.820;2023-04-25T00:51:01;15.20;46.10
48043;DHT22;33988;47.992;8.820;2023-04-25T00:53:30;15.20;46.20
48043;DHT22;33988;47.992;8.820;2023-04-25T00:55:58;15.20;46.40
48043;DHT22;33988;47.992;8.820;2023-04-25T00:58:28;15.20;46.30
48043;DHT22;33988;47.992;8.820;2023-04-25T01:00:56;15.20;46.50
48043;DHT22;33988;47.992;8.820;2023-04-25T01:03:24;15.20;46.50
48043;DHT22;33988;47.992;8.820;2023-04-25T01:05:51;15.20;46.50
48043;DHT22;33988;47.992;8.820;2023-04-25T01:08:18;15.20;46.50
48043;DHT22;33988;47.992;8.820;2023-04-25T01:10:48;15.10;47.20
48043;DHT22;33988;47.992;8.820;2023-04-25T01:13:15;15.10;46.70
48043;DHT22;33988;47.992;8.820;2023-04-25T01:15:45;15.10;46.60
48043;DHT22;33988;47.992;8.820;2023-04-25T01:18:18;15.10;46.70
48043;DHT22;33988;47.992;8.820;2023-04-25T01:20:46;15.00;46.70
48043;DHT22;33988;47.992;8.820;2023-04-25T01:23:14;14.90;46.90
48043;DHT22;33988;47.992;8.820;2023-04-25T01:25:41;15.00;46.60
48043;DHT22;33988;47.992;8.820;2023-04-25T01:28:08;15.00;47.30
48043;DHT22;33988;47.992;8.820;2023-04-25T01:30:40;15.00;46.80
48043;DHT22;33988;47.992;8.820;2023-04-25T01:33:10;15.00;46.90
48043;DHT22;33988;47.992;8.820;2023-04-25T01:35:38;15.00;47.00
48043;DHT22;33988;47.992;8.820;2023-04-25T01:38:05;15.00;47.10
48043;DHT22;33988;47.992;8.820;2023-04-25T01:40:34;15.00;47.10
48043;DHT22;33988;47.992;8.820;2023-04-25T01:43:04;15.00;47.20
48043;DHT22;33988;47.992;8.820;2023-04-25T01:45:33;15.00;47.10
48043;DHT22;33988;47.992;8.820;2023-04-25T01:48:03;15.00;47.10
48043;DHT22;33988;47.992;8.820;2023-04-25T01:50:32;15.00;47.10
48043;DHT22;33988;47.992;8.820;2023-04-25T01:52:59;15.00;47.10
48043;DHT22;33988;47.992;8.820;2023-04-25T01:55:29;14.90;47.10
48043;DHT22;33988;47.992;8.820;2023-04-25T01:57:56;14.90;47.20
48043;DHT22;33988;47.992;8.820;2023-04-25T02:00:25;14.90;47.20
48043;DHT22;33988;47.992;8.820;2023-04-25T02:02:52;14.90;47.20
48043;DHT22;33988;47.992;8.820;2023-04-25T02:05:20;14.90;47.20
48043;DHT22;33988;47.992;8.820;2023-04-25T02:07:47;14.90;47.20
48043;DHT22;33988;47.992;8.820;2023-04-25T02:10:14;14.80;47.10
48043;DHT22;33988;47.992;8.820;2023-04-25T02:12:41;14.80;47.20
48043;DHT22;33988;47.992;8.820;2023-04-25T02:15:11;14.70;47.30
48043;DHT22;33988;47.992;8.820;2023-04-25T02:17:40;14.70;47.30
48043;DHT22;33988;47.992;8.820;2023-04-25T02:20:08;14.70;47.40
48043;DHT22;33988;47.992;8.820;2023-04-25T02:22:39;14.60;47.40
48043;DHT22;33988;47.992;8.820;2023-04-25T02:25:06;14.60;47.40
48043;DHT22;33988;47.992;8.820;2023-04-25T02:27:33;14.60;47.50
48043;DHT22;33988;47.992;8.820;2023-04-25T02:30:00;14.60;47.60
48043;DHT22;33988;47.992;8.820;2023-04-25T02:32:27;14.50;47.50
48043;DHT22;33988;47.992;8.820;2023-04-25T02:34:54;14.50;47.60
48043;DHT22;33988;47.992;8.820;2023-04-25T02:37:25;14.50;47.60
48043;DHT22;33988;47.992;8.820;2023-04-25T02:39:51;14.40;47.60
48043;DHT22;33988;47.992;8.820;2023-04-25T02:42:18;14.40;47.60
48043;DHT22;33988;47.992;8.820;2023-04-25T02:44:45;14.40;47.70
48043;DHT22;33988;47.992;8.820;2023-04-25T02:47:12;14.30;47.70
48043;DHT22;33988;47.992;8.820;2023-04-25T02:49:39;14.30;47.80
48043;DHT22;33988;47.992;8.820;2023-04-25T02:52:09;14.30;47.90
48043;DHT22;33988;47.992;8.820;2023-04-25T02:54:36;14.30;48.00
48043;DHT22;33988;47.992;8.820;2023-04-25T02:57:03;14.20;48.00
48043;DHT22;33988;47.992;8.820;2023-04-25T02:59:32;14.20;48.10
48043;DHT22;33988;47.992;8.820;2023-04-25T03:01:59;14.20;48.20
48043;DHT22;33988;47.992;8.820;2023-04-25T03:04:28;14.20;48.30
48043;DHT22;33988;47.992;8.820;2023-04-25T03:06:57;14.20;48.30
48043;DHT22;33988;47.992;8.820;2023-04-25T03:09:24;14.20;48.40
48043;DHT22;33988;47.992;8.820;2023-04-25T03:11:52;14.20;48.50
48043;DHT22;33988;47.992;8.820;2023-04-25T03:14:19;14.20;48.50
48043;DHT22;33988;47.992;8.820;2023-04-25T03:16:50;14.10;48.50
48043;DHT22;33988;47.992;8.820;2023-04-25T03:19:17;14.10;48.50
48043;DHT22;33988;47.992;8.820;2023-04-25T03:21:44;13.90;48.60
48043;DHT22;33988;47.992;8.820;2023-04-25T03:24:11;14.10;48.30
48043;DHT22;33988;47.992;8.820;2023-04-25T03:26:41;14.10;48.40
48043;DHT22;33988;47.992;8.820;2023-04-25T03:29:08;14.00;48.30
48043;DHT22;33988;47.992;8.820;2023-04-25T03:31:38;14.00;48.40
48043;DHT22;33988;47.992;8.820;2023-04-25T03:34:07;14.00;48.40
48043;DHT22;33988;47.992;8.820;2023-04-25T03:36:35;14.00;48.40
48043;DHT22;33988;47.992;8.820;2023-04-25T03:39:07;13.90;48.40
48043;DHT22;33988;47.992;8.820;2023-04-25T03:41:36;13.90;48.50
48043;DHT22;33988;47.992;8.820;2023-04-25T03:44:03;13.90;48.50
48043;DHT22;33988;47.992;8.820;2023-04-25T03:46:30;13.90;48.50
48043;DHT22;33988;47.992;8.820;2023-04-25T03:48:59;13.80;48.50
48043;DHT22;33988;47.992;8.820;2023-04-25T03:51:31;13.80;48.50
48043;DHT22;33988;47.992;8.820;2023-04-25T03:53:58;13.80;48.50
48043;DHT22;33988;47.992;8.820;2023-04-25T03:56:28;13.80;48.50
48043;DHT22;33988;47.992;8.820;2023-04-25T03:58:54;13.70;48.50
48043;DHT22;33988;47.992;8.820;2023-04-25T04:01:24;13.70;48.50
48043;DHT22;33988;47.992;8.820;2023-04-25T04:03:54;13.60;48.50
48043;DHT22;33988;47.992;8.820;2023-04-25T04:06:24;13.60;48.50
48043;DHT22;33988;47.992;8.820;2023-04-25T04:08:53;13.50;48.50
48043;DHT22;33988;47.992;8.820;2023-04-25T04:11:22;13.50;48.60
48043;DHT22;33988;47.992;8.820;2023-04-25T04:13:49;13.50;48.70
48043;DHT22;33988;47.992;8.820;2023-04-25T04:16:17;13.50;48.70
48043;DHT22;33988;47.992;8.820;2023-04-25T04:18:45;13.50;48.70
48043;DHT22;33988;47.992;8.820;2023-04-25T04:21:12;13.50;48.80
48043;DHT22;33988;47.992;8.820;2023-04-25T04:23:41;13.40;48.80
48043;DHT22;33988;47.992;8.820;2023-04-25T04:26:10;13.40;48.80
48043;DHT22;33988;47.992;8.820;2023-04-25T04:28:37;13.40;48.90
48043;DHT22;33988;47.992;8.820;2023-04-25T04:31:07;13.40;48.90
48043;DHT22;33988;47.992;8.820;2023-04-25T04:33:34;13.40;49.60
48043;DHT22;33988;47.992;8.820;2023-04-25T04:36:01;13.30;49.00
48043;DHT22;33988;47.992;8.820;2023-04-25T04:38:29;13.40;49.10
48043;DHT22;33988;47.992;8.820;2023-04-25T04:40:56;13.30;49.10
48043;DHT22;33988;47.992;8.820;2023-04-25T04:43:26;13.30;49.20
48043;DHT22;33988;47.992;8.820;2023-04-25T04:45:55;13.30;49.30
48043;DHT22;33988;47.992;8.820;2023-04-25T04:48:23;13.40;49.30
48043;DHT22;33988;47.992;8.820;2023-04-25T04:50:50;13.30;49.30
48043;DHT22;33988;47.992;8.820;2023-04-25T04:53:20;13.40;49.40
48043;DHT22;33988;47.992;8.820;2023-04-25T04:55:46;13.40;49.40
48043;DHT22;33988;47.992;8.820;2023-04-25T04:58:13;13.30;49.40
48043;DHT22;33988;47.992;8.820;2023-04-25T05:00:47;13.30;50.10
48043;DHT22;33988;47.992;8.820;2023-04-25T05:03:14;13.30;49.40
48043;DHT22;33988;47.992;8.820;2023-04-25T05:05:41;13.40;49.60
48043;DHT22;33988;47.992;8.820;2023-04-25T05:08:08;13.40;49.60
48043;DHT22;33988;47.992;8.820;2023-04-25T05:10:38;13.40;49.70
48043;DHT22;33988;47.992;8.820;2023-04-25T05:13:07;13.40;49.70
48043;DHT22;33988;47.992;8.820;2023-04-25T05:15:34;13.40;49.80
48043;DHT22;33988;47.992;8.820;2023-04-25T05:18:01;13.40;49.90
48043;DHT22;33988;47.992;8.820;2023-04-25T05:20:31;13.40;49.90
48043;DHT22;33988;47.992;8.820;2023-04-25T05:22:58;13.40;49.90
48043;DHT22;33988;47.992;8.820;2023-04-25T05:25:26;13.50;50.00
48043;DHT22;33988;47.992;8.820;2023-04-25T05:27:53;13.50;50.10
48043;DHT22;33988;47.992;8.820;2023-04-25T05:30:20;13.50;50.10
48043;DHT22;33988;47.992;8.820;2023-04-25T05:32:48;13.50;50.20
48043;DHT22;33988;47.992;8.820;2023-04-25T05:35:15;13.50;50.10
48043;DHT22;33988;47.992;8.820;2023-04-25T05:37:42;13.60;50.10
48043;DHT22;33988;47.992;8.820;2023-04-25T05:40:11;13.60;50.10
48043;DHT22;33988;47.992;8.820;2023-04-25T05:42:38;13.60;50.20
48043;DHT22;33988;47.992;8.820;2023-04-25T05:45:08;13.70;50.20
48043;DHT22;33988;47.992;8.820;2023-04-25T05:47:35;13.70;50.20
48043;DHT22;33988;47.992;8.820;2023-04-25T05:50:04;13.70;50.20
48043;DHT22;33988;47.992;8.820;2023-04-25T05:52:35;13.70;50.20
48043;DHT22;33988;47.992;8.820;2023-04-25T05:55:02;13.70;50.20
48043;DHT22;33988;47.992;8.820;2023-04-25T05:57:29;13.80;50.30
48043;DHT22;33988;47.992;8.820;2023-04-25T05:59:58;13.80;50.30
48043;DHT22;33988;47.992;8.820;2023-04-25T06:02:25;13.80;50.40
48043;DHT22;33988;47.992;8.820;2023-04-25T06:04:53;13.80;51.00
48043;DHT22;33988;47.992;8.820;2023-04-25T06:07:20;13.90;50.50
48043;DHT22;33988;47.992;8.820;2023-04-25T06:09:52;13.90;50.60
48043;DHT22;33988;47.992;8.820;2023-04-25T06:12:19;13.90;50.60
48043;DHT22;33988;47.992;8.820;2023-04-25T06:14:46;13.90;50.60
48043;DHT22;33988;47.992;8.820;2023-04-25T06:17:13;14.00;50.70
48043;DHT22;33988;47.992;8.820;2023-04-25T06:19:42;14.10;50.80
48043;DHT22;33988;47.992;8.820;2023-04-25T06:22:12;14.10;50.80
48043;DHT22;33988;47.992;8.820;2023-04-25T06:24:43;14.10;50.70
48043;DHT22;33988;47.992;8.820;2023-04-25T06:27:10;14.20;50.70
48043;DHT22;33988;47.992;8.820;2023-04-25T06:29:42;14.20;50.60
48043;DHT22;33988;47.992;8.820;2023-04-25T06:32:11;14.30;50.60
48043;DHT22;33988;47.992;8.820;2023-04-25T06:34:41;14.30;50.50
48043;DHT22;33988;47.992;8.820;2023-04-25T06:37:07;14.30;50.50
48043;DHT22;33988;47.992;8.820;2023-04-25T06:39:34;14.30;50.40
48043;DHT22;33988;47.992;8.820;2023-04-25T06:42:04;14.40;50.50
48043;DHT22;33988;47.992;8.820;2023-04-25T06:44:33;14.40;50.40
48043;DHT22;33988;47.992;8.820;2023-04-25T06:47:00;14.40;50.40
48043;DHT22;33988;47.992;8.820;2023-04-25T06:49:27;14.40;50.30
48043;DHT22;33988;47.992;8.820;2023-04-25T06:51:58;14.40;50.40
48043;DHT22;33988;47.992;8.820;2023-04-25T06:54:25;14.40;50.40
48043;DHT22;33988;47.992;8.820;2023-04-25T06:56:56;14.40;50.40
48043;DHT22;33988;47.992;8.820;2023-04-25T06:59:23;14.40;50.40
48043;DHT22;33988;47.992;8.820;2023-04-25T07:01:52;14.40;50.40
48043;DHT22;33988;47.992;8.820;2023-04-25T07:04:19;14.50;50.50
48043;DHT22;33988;47.992;8.820;2023-04-25T07:06:46;14.40;50.50
48043;DHT22;33988;47.992;8.820;2023-04-25T07:09:16;14.40;50.60
48043;DHT22;33988;47.992;8.820;2023-04-25T07:11:43;14.50;50.70
48043;DHT22;33988;47.992;8.820;2023-04-25T07:14:10;14.40;50.60
48043;DHT22;33988;47.992;8.820;2023-04-25T07:16:37;14.50;50.70
48043;DHT22;33988;47.992;8.820;2023-04-25T07:19:06;14.50;50.70
48043;DHT22;33988;47.992;8.820;2023-04-25T07:21:33;14.50;50.70
48043;DHT22;33988;47.992;8.820;2023-04-25T07:24:00;14.50;50.70
48043;DHT22;33988;47.992;8.820;2023-04-25T07:26:27;14.50;50.70
48043;DHT22;33988;47.992;8.820;2023-04-25T07:28:57;14.50;50.70
48043;DHT22;33988;47.992;8.820;2023-04-25T07:31:24;14.50;50.70
48043;DHT22;33988;47.992;8.820;2023-04-25T07:33:51;14.50;50.70
48043;DHT22;33988;47.992;8.820;2023-04-25T07:36:20;14.40;50.70
48043;DHT22;33988;47.992;8.820;2023-04-25T07:38:47;14.40;50.70
48043;DHT22;33988;47.992;8.820;2023-04-25T07:41:14;14.40;50.60
48043;DHT22;33988;47.992;8.820;2023-04-25T07:43:41;14.40;50.60
48043;DHT22;33988;47.992;8.820;2023-04-25T07:46:08;14.40;50.60
48043;DHT22;33988;47.992;8.820;2023-04-25T07:48:37;14.30;50.50
48043;DHT22;33988;47.992;8.820;2023-04-25T07:51:07;14.30;50.50
48043;DHT22;33988;47.992;8.820;2023-04-25T07:53:36;14.30;50.50
48043;DHT22;33988;47.992;8.820;2023-04-25T07:56:06;14.30;50.40
48043;DHT22;33988;47.992;8.820;2023-04-25T07:58:33;14.20;50.40
48043;DHT22;33988;47.992;8.820;2023-04-25T08:01:02;14.20;50.40
48043;DHT22;33988;47.992;8.820;2023-04-25T08:03:29;14.20;50.50
48043;DHT22;33988;47.992;8.820;2023-04-25T08:05:59;14.20;50.50
48043;DHT22;33988;47.992;8.820;2023-04-25T08:08:29;14.20;50.50
48043;DHT22;33988;47.992;8.820;2023-04-25T08:11:00;14.20;50.50
48043;DHT22;33988;47.992;8.820;2023-04-25T08:13:27;14.10;50.20
48043;DHT22;33988;47.992;8.820;2023-04-25T08:15:54;14.10;50.20
48043;DHT22;33988;47.992;8.820;2023-04-25T08:18:21;14.00;50.20
48043;DHT22;33988;47.992;8.820;2023-04-25T08:20:48;14.00;50.20
48043;DHT22;33988;47.992;8.820;2023-04-25T08:23:18;14.00;50.20
48043;DHT22;33988;47.992;8.820;2023-04-25T08:25:45;13.90;50.20
48043;DHT22;33988;47.992;8.820;2023-04-25T08:28:14;13.90;50.40
48043;DHT22;33988;47.992;8.820;2023-04-25T08:30:41;13.90;50.40
48043;DHT22;33988;47.992;8.820;2023-04-25T08:33:09;13.90;50.50
48043;DHT22;33988;47.992;8.820;2023-04-25T08:35:39;13.90;50.60
48043;DHT22;33988;47.992;8.820;2023-04-25T08:38:06;13.80;50.50
48043;DHT22;33988;47.992;8.820;2023-04-25T08:40:38;13.80;50.50
48043;DHT22;33988;47.992;8.820;2023-04-25T08:43:07;13.80;50.60
48043;DHT22;33988;47.992;8.820;2023-04-25T08:45:39;13.80;50.50
48043;DHT22;33988;47.992;8.820;2023-04-25T08:48:10;13.80;50.50
48043;DHT22;33988;47.992;8.820;2023-04-25T08:50:49;13.80;50.50
48043;DHT22;33988;47.992;8.820;2023-04-25T08:53:22;13.70;50.50
48043;DHT22;33988;47.992;8.820;2023-04-25T08:55:58;13.70;50.50
48043;DHT22;33988;47.992;8.820;2023-04-25T08:58:27;13.70;50.50
48043;DHT22;33988;47.992;8.820;2023-04-25T09:00:57;13.60;50.50
48043;DHT22;33988;47.992;8.820;2023-04-25T09:03:24;13.60;50.60
48043;DHT22;33988;47.992;8.820;2023-04-25T09:05:51;13.60;50.70
48043;DHT22;33988;47.992;8.820;2023-04-25T09:08:19;13.60;50.80
48043;DHT22;33988;47.992;8.820;2023-04-25T09:10:48;13.60;50.80
48043;DHT22;33988;47.992;8.820;2023-04-25T09:13:24;13.60;50.90
48043;DHT22;33988;47.992;8.820;2023-04-25T09:15:57;13.60;51.00
48043;DHT22;33988;47.992;8.820;2023-04-25T09:18:29;13.60;50.90
48043;DHT22;33988;47.992;8.820;2023-04-25T09:21:09;13.70;51.00
48043;DHT22;33988;47.992;8.820;2023-04-25T09:23:49;13.60;51.10
48043;DHT22;33988;47.992;8.820;2023-04-25T09:26:20;13.60;51.10
48043;DHT22;33988;47.992;8.820;2023-04-25T09:29:05;13.70;51.00
48043;DHT22;33988;47.992;8.820;2023-04-25T09:31:34;13.60;51.10
48043;DHT22;33988;47.992;8.820;2023-04-25T09:34:06;13.70;51.00
48043;DHT22;33988;47.992;8.820;2023-04-25T09:36:34;13.70;51.10
48043;DHT22;33988;47.992;8.820;2023-04-25T09:39:12;13.70;51.10
48043;DHT22;33988;47.992;8.820;2023-04-25T09:41:42;13.70;51.40
48043;DHT22;33988;47.992;8.820;2023-04-25T09:44:12;13.80;51.50
48043;DHT22;33988;47.992;8.820;2023-04-25T09:46:39;13.80;51.70
48043;DHT22;33988;47.992;8.820;2023-04-25T09:49:08;13.90;52.00
48043;DHT22;33988;47.992;8.820;2023-04-25T09:51:40;14.00;52.20
48043;DHT22;33988;47.992;8.820;2023-04-25T09:54:07;14.10;52.50
48043;DHT22;33988;47.992;8.820;2023-04-25T09:56:36;14.20;52.50
48043;DHT22;33988;47.992;8.820;2023-04-25T09:59:06;14.30;52.60
48043;DHT22;33988;47.992;8.820;2023-04-25T10:01:34;14.40;52.50
48043;DHT22;33988;47.992;8.820;2023-04-25T10:04:06;14.50;52.50
48043;DHT22;33988;47.992;8.820;2023-04-25T10:06:37;14.60;52.30
48043;DHT22;33988;47.992;8.820;2023-04-25T10:09:05;14.70;52.10
48043;DHT22;33988;47.992;8.820;2023-04-25T10:11:35;14.80;52.10
48043;DHT22;33988;47.992;8.820;2023-04-25T10:14:02;14.90;52.10
48043;DHT22;33988;47.992;8.820;2023-04-25T10:16:30;15.00;52.20
48043;DHT22;33988;47.992;8.820;2023-04-25T10:18:57;15.00;52.20
48043;DHT22;33988;47.992;8.820;2023-04-25T10:21:24;15.10;52.10
48043;DHT22;33988;47.992;8.820;2023-04-25T10:23:56;15.20;52.10
48043;DHT22;33988;47.992;8.820;2023-04-25T10:26:24;15.30;52.10
48043;DHT22;33988;47.992;8.820;2023-04-25T10:28:59;15.30;52.10
48043;DHT22;33988;47.992;8.820;2023-04-25T10:31:29;15.40;52.30
48043;DHT22;33988;47.992;8.820;2023-04-25T10:33:59;15.50;52.20
48043;DHT22;33988;47.992;8.820;2023-04-25T10:36:31;15.60;51.90
48043;DHT22;33988;47.992;8.820;2023-04-25T10:39:04;15.60;51.60
48043;DHT22;33988;47.992;8.820;2023-04-25T10:41:52;15.70;51.70
48043;DHT22;33988;47.992;8.820;2023-04-25T10:44:31;15.70;51.80
48043;DHT22;33988;47.992;8.820;2023-04-25T10:47:02;15.80;51.60
48043;DHT22;33988;47.992;8.820;2023-04-25T10:54:56;15.90;51.00
48043;DHT22;33988;47.992;8.820;2023-04-25T11:02:37;16.00;51.30
48043;DHT22;33988;47.992;8.820;2023-04-25T11:05:05;16.00;51.10
48043;DHT22;33988;47.992;8.820;2023-04-25T11:07:53;16.10;51.00
48043;DHT22;33988;47.992;8.820;2023-04-25T11:10:33;16.10;51.40
48043;DHT22;33988;47.992;8.820;2023-04-25T11:13:06;16.20;51.50
48043;DHT22;33988;47.992;8.820;2023-04-25T11:15:33;16.20;51.70
48043;DHT22;33988;47.992;8.820;2023-04-25T11:18:00;16.30;51.80
48043;DHT22;33988;47.992;8.820;2023-04-25T11:20:30;16.40;51.90
48043;DHT22;33988;47.992;8.820;2023-04-25T11:22:58;16.50;51.90
48043;DHT22;33988;47.992;8.820;2023-04-25T11:25:33;16.60;51.80
48043;DHT22;33988;47.992;8.820;2023-04-25T11:28:03;16.60;51.70
48043;DHT22;33988;47.992;8.820;2023-04-25T11:30:33;16.70;51.80
48043;DHT22;33988;47.992;8.820;2023-04-25T11:33:00;16.90;51.50
48043;DHT22;33988;47.992;8.820;2023-04-25T11:35:29;16.90;50.90
48043;DHT22;33988;47.992;8.820;2023-04-25T11:37:56;17.00;50.60
48043;DHT22;33988;47.992;8.820;2023-04-25T11:40:23;17.00;50.30
48043;DHT22;33988;47.992;8.820;2023-04-25T11:42:52;17.10;50.20
48043;DHT22;33988;47.992;8.820;2023-04-25T11:45:22;17.00;50.60
48043;DHT22;33988;47.992;8.820;2023-04-25T11:47:50;17.10;50.00
48043;DHT22;33988;47.992;8.820;2023-04-25T11:50:19;17.10;50.10
48043;DHT22;33988;47.992;8.820;2023-04-25T11:52:47;17.10;50.10
48043;DHT22;33988;47.992;8.820;2023-04-25T11:55:19;17.20;50.00
48043;DHT22;33988;47.992;8.820;2023-04-25T11:57:50;17.10;50.10
48043;DHT22;33988;47.992;8.820;2023-04-25T12:00:21;17.20;50.00
48043;DHT22;33988;47.992;8.820;2023-04-25T12:02:56;17.20;49.90
48043;DHT22;33988;47.992;8.820;2023-04-25T12:05:29;17.20;49.80
48043;DHT22;33988;47.992;8.820;2023-04-25T12:08:14;17.30;49.60
48043;DHT22;33988;47.992;8.820;2023-04-25T12:10:44;17.30;49.30
48043;DHT22;33988;47.992;8.820;2023-04-25T12:15:54;17.30;49.40
48043;DHT22;33988;47.992;8.820;2023-04-25T12:18:24;17.30;49.70
48043;DHT22;33988;47.992;8.820;2023-04-25T12:20:57;17.40;49.90
48043;DHT22;33988;47.992;8.820;2023-04-25T12:23:28;17.40;49.90
48043;DHT22;33988;47.992;8.820;2023-04-25T12:25:58;17.40;49.70
48043;DHT22;33988;47.992;8.820;2023-04-25T12:28:25;17.50;49.60
48043;DHT22;33988;47.992;8.820;2023-04-25T12:33:31;17.60;49.30
48043;DHT22;33988;47.992;8.820;2023-04-25T12:36:02;17.50;49.30
48043;DHT22;33988;47.992;8.820;2023-04-25T12:38:39;17.60;49.50
48043;DHT22;33988;47.992;8.820;2023-04-25T12:41:10;17.60;49.70
48043;DHT22;33988;47.992;8.820;2023-04-25T12:43:36;17.70;49.60
48043;DHT22;33988;47.992;8.820;2023-04-25T12:46:06;17.80;49.30
48043;DHT22;33988;47.992;8.820;2023-04-25T12:48:35;17.80;48.80
48043;DHT22;33988;47.992;8.820;2023-04-25T12:51:04;17.90;48.90
48043;DHT22;33988;47.992;8.820;2023-04-25T12:53:31;17.90;49.00
48043;DHT22;33988;47.992;8.820;2023-04-25T12:56:01;18.00;49.20
48043;DHT22;33988;47.992;8.820;2023-04-25T12:58:28;18.00;48.90
48043;DHT22;33988;47.992;8.820;2023-04-25T13:00:55;18.10;48.90
48043;DHT22;33988;47.992;8.820;2023-04-25T13:03:22;18.10;48.90
48043;DHT22;33988;47.992;8.820;2023-04-25T13:05:51;18.20;48.80
48043;DHT22;33988;47.992;8.820;2023-04-25T13:08:21;18.20;48.60
48043;DHT22;33988;47.992;8.820;2023-04-25T13:10:48;18.30;48.40
48043;DHT22;33988;47.992;8.820;2023-04-25T13:13:15;18.40;48.10
48043;DHT22;33988;47.992;8.820;2023-04-25T13:15:43;18.40;47.80
48043;DHT22;33988;47.992;8.820;2023-04-25T13:18:12;18.50;47.40
48043;DHT22;33988;47.992;8.820;2023-04-25T13:20:39;18.50;47.00
48043;DHT22;33988;47.992;8.820;2023-04-25T13:23:06;18.50;46.80
48043;DHT22;33988;47.992;8.820;2023-04-25T13:25:33;18.50;46.80
48043;DHT22;33988;47.992;8.820;2023-04-25T13:28:01;18.40;46.80
48043;DHT22;33988;47.992;8.820;2023-04-25T13:30:28;18.40;46.80
48043;DHT22;33988;47.992;8.820;2023-04-25T13:32:55;18.40;46.70
48043;DHT22;33988;47.992;8.820;2023-04-25T13:35:23;18.40;46.60
48043;DHT22;33988;47.992;8.820;2023-04-25T13:37:53;18.40;46.60
48043;DHT22;33988;47.992;8.820;2023-04-25T13:40:19;18.40;46.50
48043;DHT22;33988;47.992;8.820;2023-04-25T13:42:49;18.40;46.40
48043;DHT22;33988;47.992;8.820;2023-04-25T13:45:17;18.40;46.40
48043;DHT22;33988;47.992;8.820;2023-04-25T13:47:44;18.40;46.30
48043;DHT22;33988;47.992;8.820;2023-04-25T13:50:12;18.40;46.40
48043;DHT22;33988;47.992;8.820;2023-04-25T13:52:40;18.40;46.40
48043;DHT22;33988;47.992;8.820;2023-04-25T13:55:10;18.40;46.00
48043;DHT22;33988;47.992;8.820;2023-04-25T13:57:37;18.40;45.80
48043;DHT22;33988;47.992;8.820;2023-04-25T14:00:07;18.40;45.80
48043;DHT22;33988;47.992;8.820;2023-04-25T14:02:38;18.40;45.80
48043;DHT22;33988;47.992;8.820;2023-04-25T14:05:05;18.30;45.70
48043;DHT22;33988;47.992;8.820;2023-04-25T14:07:34;18.30;45.60
48043;DHT22;33988;47.992;8.820;2023-04-25T14:10:02;18.30;45.50
48043;DHT22;33988;47.992;8.820;2023-04-25T14:12:32;18.20;45.50
48043;DHT22;33988;47.992;8.820;2023-04-25T14:15:02;18.20;45.40
48043;DHT22;33988;47.992;8.820;2023-04-25T14:17:29;18.20;45.30
48043;DHT22;33988;47.992;8.820;2023-04-25T14:19:58;18.20;45.40
48043;DHT22;33988;47.992;8.820;2023-04-25T14:22:28;18.10;45.50
48043;DHT22;33988;47.992;8.820;2023-04-25T14:24:55;18.10;45.50
48043;DHT22;33988;47.992;8.820;2023-04-25T14:27:21;18.00;45.40
48043;DHT22;33988;47.992;8.820;2023-04-25T14:29:48;18.00;45.30
48043;DHT22;33988;47.992;8.820;2023-04-25T14:32:15;18.00;45.30
48043;DHT22;33988;47.992;8.820;2023-04-25T14:34:42;17.90;45.30
48043;DHT22;33988;47.992;8.820;2023-04-25T14:37:14;17.90;45.20
48043;DHT22;33988;47.992;8.820;2023-04-25T14:39:41;17.90;45.10
48043;DHT22;33988;47.992;8.820;2023-04-25T14:42:12;17.80;44.90
48043;DHT22;33988;47.992;8.820;2023-04-25T14:44:39;17.80;45.10
48043;DHT22;33988;47.992;8.820;2023-04-25T14:47:08;17.80;45.10
48043;DHT22;33988;47.992;8.820;2023-04-25T14:49:37;17.80;45.00
48043;DHT22;33988;47.992;8.820;2023-04-25T14:52:04;17.80;44.90
48043;DHT22;33988;47.992;8.820;2023-04-25T14:54:36;17.70;44.80
48043;DHT22;33988;47.992;8.820;2023-04-25T14:57:03;17.70;44.70
48043;DHT22;33988;47.992;8.820;2023-04-25T14:59:30;17.70;44.70
48043;DHT22;33988;47.992;8.820;2023-04-25T15:01:59;17.70;44.70
48043;DHT22;33988;47.992;8.820;2023-04-25T15:04:26;17.60;44.80
48043;DHT22;33988;47.992;8.820;2023-04-25T15:06:53;17.60;45.50
48043;DHT22;33988;47.992;8.820;2023-04-25T15:09:20;17.60;45.00
48043;DHT22;33988;47.992;8.820;2023-04-25T15:11:50;17.60;45.20
48043;DHT22;33988;47.992;8.820;2023-04-25T15:14:17;17.60;45.40
48043;DHT22;33988;47.992;8.820;2023-04-25T15:16:44;17.50;45.40
48043;DHT22;33988;47.992;8.820;2023-04-25T15:19:11;17.60;45.40
48043;DHT22;33988;47.992;8.820;2023-04-25T15:21:39;17.60;45.50
48043;DHT22;33988;47.992;8.820;2023-04-25T15:24:06;17.60;45.50
48043;DHT22;33988;47.992;8.820;2023-04-25T15:26:37;17.60;45.50
48043;DHT22;33988;47.992;8.820;2023-04-25T15:29:07;17.60;45.50
48043;DHT22;33988;47.992;8.820;2023-04-25T15:31:34;17.60;45.40
48043;DHT22;33988;47.992;8.820;2023-04-25T15:34:01;17.70;45.40
48043;DHT22;33988;47.992;8.820;2023-04-25T15:36:29;17.70;45.40
48043;DHT22;33988;47.992;8.820;2023-04-25T15:39:00;17.70;45.30
48043;DHT22;33988;47.992;8.820;2023-04-25T15:41:27;17.70;45.10
48043;DHT22;33988;47.992;8.820;2023-04-25T15:43:56;17.70;44.90
48043;DHT22;33988;47.992;8.820;2023-04-25T15:46:26;17.70;44.80
48043;DHT22;33988;47.992;8.820;2023-04-25T15:48:56;17.80;44.70
48043;DHT22;33988;47.992;8.820;2023-04-25T15:51:23;17.80;44.50
48043;DHT22;33988;47.992;8.820;2023-04-25T15:53:52;17.80;44.60
48043;DHT22;33988;47.992;8.820;2023-04-25T15:56:20;17.80;44.70